createdAt,value
2017-09-26T00:01:28.726Z,6.30
2017-09-26T00:03:57.081Z,6.57
2017-09-26T00:06:24.656Z,6.33
2017-09-26T00:08:52.245Z,4.73
2017-09-26T00:11:19.816Z,4.70
2017-09-26T00:13:48.182Z,4.60
2017-09-26T00:16:15.750Z,4.93
2017-09-26T00:18:44.112Z,4.90
2017-09-26T00:21:11.686Z,5.27
2017-09-26T00:23:40.026Z,6.13
2017-09-26T00:26:07.626Z,6.23
2017-09-26T00:28:36.051Z,5.63
2017-09-26T00:31:03.700Z,5.67
2017-09-26T00:33:31.270Z,4.67
2017-09-26T00:36:14.538Z,6.17
2017-09-26T00:38:42.112Z,7.73
2017-09-26T00:41:09.707Z,7.20
2017-09-26T00:43:37.284Z,5.10
2017-09-26T00:46:04.875Z,8.43
2017-09-26T00:48:32.454Z,6.37
2017-09-26T00:51:00.811Z,6.57
2017-09-26T00:53:28.390Z,7.20
2017-09-26T00:55:56.744Z,6.10
2017-09-26T00:58:25.147Z,5.80
2017-09-26T01:00:53.506Z,7.70
2017-09-26T01:03:22.027Z,7.30
2017-09-26T01:05:52.323Z,7.23
2017-09-26T01:08:19.897Z,7.10
2017-09-26T01:10:47.498Z,6.37
2017-09-26T01:13:15.076Z,10.93
2017-09-26T01:15:42.665Z,7.83
2017-09-26T01:18:10.241Z,5.93
2017-09-26T01:20:46.275Z,4.17
2017-09-26T01:23:14.616Z,5.70
2017-09-26T01:25:42.209Z,7.00
2017-09-26T01:28:10.554Z,7.37
2017-09-26T01:30:38.137Z,8.33
2017-09-26T01:33:05.712Z,6.90
2017-09-26T01:35:34.070Z,9.47
2017-09-26T01:38:01.650Z,9.03
2017-09-26T01:40:30.010Z,10.00
2017-09-26T01:42:58.357Z,9.50
2017-09-26T01:45:25.945Z,9.87
2017-09-26T01:47:53.522Z,7.10
2017-09-26T01:50:21.123Z,12.13
2017-09-26T01:52:48.702Z,8.40
2017-09-26T01:55:16.298Z,12.77
2017-09-26T01:57:43.875Z,13.70
2017-09-26T02:00:11.470Z,9.97
2017-09-26T02:02:39.042Z,10.70
2017-09-26T02:05:06.630Z,9.17
2017-09-26T02:07:34.206Z,6.60
2017-09-26T02:10:01.774Z,6.47
2017-09-26T02:12:29.364Z,7.70
2017-09-26T02:14:57.700Z,7.30
2017-09-26T02:17:25.284Z,6.00
2017-09-26T02:19:52.855Z,8.03
2017-09-26T02:22:21.218Z,9.63
2017-09-26T02:24:48.792Z,8.90
2017-09-26T02:27:16.385Z,8.40
2017-09-26T02:29:43.963Z,10.53
2017-09-26T02:32:11.563Z,8.97
2017-09-26T02:34:39.142Z,7.97
2017-09-26T02:37:06.746Z,8.10
2017-09-26T02:39:34.313Z,8.33
2017-09-26T02:42:01.910Z,8.40
2017-09-26T02:44:29.499Z,6.90
2017-09-26T02:46:57.173Z,7.13
2017-09-26T02:49:24.758Z,8.77
2017-09-26T02:51:53.118Z,5.87
2017-09-26T02:54:20.698Z,9.07
2017-09-26T02:56:49.064Z,8.50
2017-09-26T02:59:16.639Z,7.57
2017-09-26T03:01:45.003Z,12.10
2017-09-26T03:04:13.346Z,6.50
2017-09-26T03:06:40.940Z,6.93
2017-09-26T03:09:08.509Z,9.60
2017-09-26T03:11:36.109Z,5.23
2017-09-26T03:14:03.682Z,5.03
2017-09-26T03:16:31.276Z,3.60
2017-09-26T03:18:58.849Z,5.67
2017-09-26T03:21:26.451Z,7.90
2017-09-26T03:23:54.035Z,7.23
2017-09-26T03:26:21.625Z,8.00
2017-09-26T03:28:49.211Z,6.67
2017-09-26T03:31:16.806Z,7.20
2017-09-26T03:33:44.383Z,7.13
2017-09-26T03:36:12.742Z,7.13
2017-09-26T03:38:40.319Z,8.93
2017-09-26T03:41:07.915Z,8.37
2017-09-26T03:43:35.499Z,10.07
2017-09-26T03:46:03.092Z,9.63
2017-09-26T03:48:30.672Z,10.67
2017-09-26T03:50:58.272Z,9.00
2017-09-26T03:53:25.847Z,9.10
2017-09-26T03:55:53.442Z,9.10
2017-09-26T03:58:21.019Z,8.83
2017-09-26T04:00:48.618Z,8.50
2017-09-26T04:03:16.200Z,10.20
2017-09-26T04:05:43.795Z,10.93
2017-09-26T04:08:11.370Z,7.33
2017-09-26T04:10:38.948Z,10.03
2017-09-26T04:13:06.551Z,14.67
2017-09-26T04:15:34.126Z,11.80
2017-09-26T04:18:01.719Z,10.03
2017-09-26T04:20:29.298Z,9.93
2017-09-26T04:22:56.895Z,9.70
2017-09-26T04:25:24.480Z,12.27
2017-09-26T04:27:52.075Z,10.43
2017-09-26T04:30:20.415Z,10.57
2017-09-26T04:32:48.006Z,9.43
2017-09-26T04:35:15.586Z,13.87
2017-09-26T04:37:43.950Z,9.73
2017-09-26T04:40:11.532Z,13.93
2017-09-26T04:42:39.903Z,8.20
2017-09-26T04:45:07.483Z,9.00
2017-09-26T04:47:35.838Z,8.40
2017-09-26T04:50:03.419Z,8.20
2017-09-26T04:52:31.019Z,9.60
2017-09-26T04:54:58.849Z,10.10
2017-09-26T04:57:26.659Z,7.90
2017-09-26T04:59:54.242Z,11.43
2017-09-26T05:02:22.608Z,7.33
2017-09-26T05:04:50.124Z,8.07
2017-09-26T05:07:17.668Z,10.23
2017-09-26T05:09:45.191Z,6.27
2017-09-26T05:12:12.723Z,7.60
2017-09-26T05:14:41.024Z,7.17
2017-09-26T05:17:08.555Z,6.20
2017-09-26T05:19:36.891Z,6.97
2017-09-26T05:22:04.431Z,13.10
2017-09-26T05:24:31.958Z,12.50
2017-09-26T05:26:59.499Z,13.00
2017-09-26T05:29:27.747Z,9.83
2017-09-26T05:31:55.290Z,14.10
2017-09-26T05:34:23.582Z,11.77
2017-09-26T05:36:51.131Z,11.10
2017-09-26T05:39:20.234Z,15.83
2017-09-26T05:41:47.779Z,11.87
2017-09-26T05:44:15.306Z,13.73
2017-09-26T05:46:42.853Z,14.77
2017-09-26T05:49:10.378Z,16.30
2017-09-26T05:51:38.690Z,19.27
2017-09-26T05:54:06.221Z,13.80
2017-09-26T05:56:33.769Z,14.23
2017-09-26T05:59:01.309Z,18.87
2017-09-26T06:01:28.857Z,15.03
2017-09-26T06:03:56.383Z,12.33
2017-09-26T06:06:24.696Z,21.00
2017-09-26T06:08:52.238Z,21.37
2017-09-26T06:11:20.547Z,23.30
2017-09-26T06:13:48.841Z,30.17
2017-09-26T06:16:16.391Z,31.97
2017-09-26T06:18:43.932Z,29.97
2017-09-26T06:21:12.258Z,33.13
2017-09-26T06:23:40.550Z,31.37
2017-09-26T06:26:08.078Z,31.97
2017-09-26T06:28:35.624Z,33.83
2017-09-26T06:31:03.914Z,35.60
2017-09-26T06:33:31.465Z,27.80
2017-09-26T06:35:59.001Z,34.23
2017-09-26T06:38:26.557Z,37.40
2017-09-26T06:40:54.091Z,32.90
2017-09-26T06:43:21.637Z,34.73
2017-09-26T06:45:49.164Z,28.73
2017-09-26T06:48:17.487Z,29.60
2017-09-26T06:50:45.013Z,32.90
2017-09-26T06:53:12.554Z,35.40
2017-09-26T06:55:40.079Z,37.10
2017-09-26T06:58:07.623Z,30.23
2017-09-26T07:00:35.160Z,31.53
2017-09-26T07:03:03.478Z,28.90
2017-09-26T07:05:31.006Z,31.70
2017-09-26T07:07:58.559Z,31.73
2017-09-26T07:10:26.087Z,31.77
2017-09-26T07:12:53.642Z,30.30
2017-09-26T07:15:21.174Z,33.03
2017-09-26T07:17:48.723Z,34.67
2017-09-26T07:20:17.010Z,43.13
2017-09-26T07:22:44.560Z,38.70
2017-09-26T07:25:12.086Z,32.37
2017-09-26T07:27:40.402Z,36.60
2017-09-26T07:30:07.931Z,36.63
2017-09-26T07:32:35.487Z,32.03
2017-09-26T07:35:03.022Z,34.07
2017-09-26T07:37:30.547Z,36.00
2017-09-26T07:39:58.867Z,37.20
2017-09-26T07:42:26.391Z,35.90
2017-09-26T07:44:53.941Z,30.83
2017-09-26T07:47:21.467Z,37.43
2017-09-26T07:49:49.010Z,37.90
2017-09-26T07:52:17.301Z,37.67
2017-09-26T07:54:44.846Z,37.60
2017-09-26T07:57:13.140Z,36.90
2017-09-26T07:59:40.685Z,27.70
2017-09-26T08:02:08.560Z,32.37
2017-09-26T08:04:36.516Z,25.33
2017-09-26T08:07:04.313Z,30.80
2017-09-26T08:09:32.132Z,27.57
2017-09-26T08:11:59.891Z,27.23
2017-09-26T08:14:27.442Z,25.20
2017-09-26T08:16:54.972Z,26.93
2017-09-26T08:19:22.526Z,30.07
2017-09-26T08:21:50.060Z,25.43
2017-09-26T08:24:17.587Z,28.57
2017-09-26T08:26:45.895Z,24.80
2017-09-26T08:29:14.188Z,27.67
2017-09-26T08:31:41.743Z,27.00
2017-09-26T08:34:09.266Z,36.77
2017-09-26T08:36:37.578Z,27.30
2017-09-26T08:39:05.107Z,27.43
2017-09-26T08:41:32.650Z,31.47
2017-09-26T08:44:00.945Z,31.30
2017-09-26T08:46:28.495Z,31.97
2017-09-26T08:48:56.786Z,32.17
2017-09-26T08:51:25.111Z,27.97
2017-09-26T08:53:53.404Z,26.47
2017-09-26T08:56:20.926Z,26.60
2017-09-26T08:58:48.471Z,26.80
2017-09-26T09:01:16.759Z,24.63
2017-09-26T09:03:44.303Z,35.07
2017-09-26T09:06:11.827Z,27.20
2017-09-26T09:08:39.370Z,26.30
2017-09-26T09:11:06.902Z,23.77
2017-09-26T09:13:34.455Z,31.60
2017-09-26T09:16:01.984Z,27.27
2017-09-26T09:18:29.536Z,26.03
2017-09-26T09:20:57.065Z,27.27
2017-09-26T09:23:25.382Z,27.27
2017-09-26T09:25:53.671Z,24.97
2017-09-26T09:28:21.215Z,24.50
2017-09-26T09:30:49.516Z,23.77
2017-09-26T09:33:17.075Z,26.07
2017-09-26T09:35:45.367Z,29.20
2017-09-26T09:38:12.915Z,33.77
2017-09-26T09:40:40.440Z,23.27
2017-09-26T09:43:07.986Z,24.60
2017-09-26T09:45:35.536Z,27.20
2017-09-26T09:48:03.067Z,27.20
2017-09-26T09:50:30.614Z,24.73
2017-09-26T09:52:58.144Z,26.63
2017-09-26T09:55:25.691Z,26.83
2017-09-26T09:57:53.221Z,27.07
2017-09-26T10:00:20.767Z,24.27
2017-09-26T10:02:48.294Z,31.83
2017-09-26T10:05:15.836Z,26.07
2017-09-26T10:07:43.366Z,24.67
2017-09-26T10:10:10.915Z,24.40
2017-09-26T10:12:38.455Z,24.13
2017-09-26T10:15:06.004Z,28.37
2017-09-26T10:17:33.530Z,24.47
2017-09-26T10:20:01.080Z,24.33
2017-09-26T10:22:29.372Z,21.27
2017-09-26T10:24:56.928Z,23.80
2017-09-26T10:27:24.459Z,27.30
2017-09-26T10:29:52.004Z,23.83
2017-09-26T10:32:19.530Z,25.90
2017-09-26T10:34:47.075Z,22.47
2017-09-26T10:37:14.608Z,25.80
2017-09-26T10:39:42.154Z,19.10
2017-09-26T10:42:09.683Z,23.80
2017-09-26T10:44:37.226Z,25.47
2017-09-26T10:47:04.755Z,26.37
2017-09-26T10:49:33.085Z,23.10
2017-09-26T10:52:00.612Z,22.00
2017-09-26T10:54:28.167Z,22.37
2017-09-26T10:56:55.695Z,22.50
2017-09-26T10:59:23.238Z,20.93
2017-09-26T11:01:50.762Z,19.97
2017-09-26T11:04:18.306Z,20.97
2017-09-26T11:06:46.598Z,19.57
2017-09-26T11:09:14.910Z,18.00
2017-09-26T11:11:42.442Z,19.40
2017-09-26T11:14:09.991Z,21.70
2017-09-26T11:16:37.510Z,17.57
2017-09-26T11:19:05.818Z,19.90
2017-09-26T11:21:33.352Z,19.80
2017-09-26T11:24:00.896Z,17.70
2017-09-26T11:26:28.423Z,17.73
2017-09-26T11:28:55.971Z,20.13
2017-09-26T11:31:23.495Z,14.90
2017-09-26T11:33:51.811Z,19.70
2017-09-26T11:36:19.335Z,16.00
2017-09-26T11:38:46.878Z,15.83
2017-09-26T11:41:14.411Z,17.00
2017-09-26T11:43:41.965Z,21.20
2017-09-26T11:46:09.487Z,20.77
2017-09-26T11:48:37.776Z,19.17
2017-09-26T11:51:05.323Z,19.80
2017-09-26T11:53:32.906Z,19.57
2017-09-26T11:56:00.454Z,17.70
2017-09-26T11:58:27.979Z,17.17
2017-09-26T12:00:55.523Z,21.23
2017-09-26T12:03:23.047Z,18.93
2017-09-26T12:05:50.593Z,18.80
2017-09-26T12:08:18.116Z,16.10
2017-09-26T12:10:45.666Z,16.60
2017-09-26T12:13:18.976Z,17.40
2017-09-26T12:15:47.295Z,18.20
2017-09-26T12:18:14.822Z,17.93
2017-09-26T12:20:42.366Z,20.10
2017-09-26T12:23:09.906Z,16.10
2017-09-26T12:25:37.455Z,17.00
2017-09-26T12:28:05.756Z,20.00
2017-09-26T12:30:33.311Z,16.17
2017-09-26T12:33:00.849Z,18.10
2017-09-26T12:35:28.398Z,21.70
2017-09-26T12:37:56.696Z,14.33
2017-09-26T12:40:24.242Z,14.80
2017-09-26T12:42:51.770Z,15.43
2017-09-26T12:45:19.319Z,16.50
2017-09-26T12:47:46.848Z,15.07
2017-09-26T12:50:15.160Z,17.53
2017-09-26T12:52:42.690Z,15.37
2017-09-26T12:55:10.244Z,15.53
2017-09-26T12:57:37.781Z,15.10
2017-09-26T13:00:05.321Z,16.70
2017-09-26T13:02:32.853Z,19.13
2017-09-26T13:05:00.396Z,19.63
2017-09-26T13:07:27.924Z,15.57
2017-09-26T13:09:55.471Z,17.13
2017-09-26T13:12:23.003Z,16.97
2017-09-26T13:14:50.548Z,16.43
2017-09-26T13:17:18.075Z,16.90
2017-09-26T13:19:46.395Z,16.83
2017-09-26T13:22:13.926Z,17.03
2017-09-26T13:24:41.474Z,15.33
2017-09-26T13:27:09.003Z,15.50
2017-09-26T13:29:36.561Z,17.63
2017-09-26T13:32:04.086Z,16.00
2017-09-26T13:34:31.635Z,14.30
2017-09-26T13:36:59.184Z,16.80
2017-09-26T13:39:26.715Z,16.03
2017-09-26T13:41:54.259Z,16.67
2017-09-26T13:44:21.790Z,16.90
2017-09-26T13:46:49.330Z,21.80
2017-09-26T13:49:16.863Z,14.47
2017-09-26T13:51:44.401Z,16.63
2017-09-26T13:54:11.941Z,17.73
2017-09-26T13:56:40.261Z,20.80
2017-09-26T13:59:08.551Z,20.10
2017-09-26T14:01:36.862Z,18.77
2017-09-26T14:04:05.151Z,14.70
2017-09-26T14:06:32.700Z,17.30
2017-09-26T14:09:00.234Z,14.17
2017-09-26T14:11:27.780Z,15.07
2017-09-26T14:13:56.074Z,19.10
2017-09-26T14:16:23.620Z,16.23
2017-09-26T14:18:51.148Z,15.57
2017-09-26T14:21:18.687Z,12.97
2017-09-26T14:23:46.219Z,16.10
2017-09-26T14:26:13.767Z,12.83
2017-09-26T14:28:42.056Z,15.83
2017-09-26T14:31:09.608Z,18.33
2017-09-26T14:33:37.135Z,19.10
2017-09-26T14:36:04.674Z,17.80
2017-09-26T14:38:32.200Z,17.50
2017-09-26T14:40:59.747Z,15.33
2017-09-26T14:43:27.286Z,16.33
2017-09-26T14:45:54.840Z,17.30
2017-09-26T14:48:22.362Z,16.07
2017-09-26T14:50:49.911Z,16.83
2017-09-26T14:53:18.205Z,17.10
2017-09-26T14:55:45.754Z,15.53
2017-09-26T14:58:13.284Z,17.27
2017-09-26T15:00:40.835Z,15.20
2017-09-26T15:03:09.136Z,17.13
2017-09-26T15:05:36.681Z,16.93
2017-09-26T15:08:04.210Z,15.40
2017-09-26T15:10:31.761Z,14.67
2017-09-26T15:12:59.287Z,18.53
2017-09-26T15:15:27.607Z,19.63
2017-09-26T15:17:55.137Z,14.60
2017-09-26T15:20:23.438Z,18.43
2017-09-26T15:22:50.983Z,17.77
2017-09-26T15:25:18.517Z,15.97
2017-09-26T15:27:46.063Z,15.73
2017-09-26T15:30:13.591Z,15.60
2017-09-26T15:32:41.141Z,17.63
2017-09-26T15:35:08.667Z,14.73
2017-09-26T15:37:36.220Z,16.73
2017-09-26T15:40:03.748Z,16.97
2017-09-26T15:42:31.290Z,15.57
2017-09-26T15:44:58.823Z,16.50
2017-09-26T15:47:26.370Z,14.73
2017-09-26T15:49:53.895Z,14.97
2017-09-26T15:52:21.470Z,16.13
2017-09-26T15:54:48.988Z,17.03
2017-09-26T15:57:16.534Z,16.97
2017-09-26T15:59:44.062Z,17.20
2017-09-26T16:02:11.608Z,17.30
2017-09-26T16:04:39.899Z,18.83
2017-09-26T16:07:07.447Z,15.87
2017-09-26T16:09:34.973Z,16.53
2017-09-26T16:12:02.518Z,11.63
2017-09-26T16:14:30.044Z,15.73
2017-09-26T16:16:57.599Z,12.47
2017-09-26T16:19:25.127Z,11.77
2017-09-26T16:21:52.675Z,11.10
2017-09-26T16:24:20.287Z,11.80
2017-09-26T16:26:47.906Z,12.43
2017-09-26T16:29:15.459Z,10.97
2017-09-26T16:31:43.010Z,11.10
2017-09-26T16:34:10.530Z,11.23
2017-09-26T16:36:53.607Z,11.30
2017-09-26T16:39:25.019Z,11.40
2017-09-26T16:41:52.574Z,16.40
2017-09-26T16:44:20.104Z,10.13
2017-09-26T16:46:48.423Z,13.40
2017-09-26T16:49:15.960Z,14.83
2017-09-26T16:51:43.520Z,15.27
2017-09-26T16:54:11.047Z,14.33
2017-09-26T16:56:38.590Z,16.00
2017-09-26T16:59:06.112Z,16.10
2017-09-26T17:01:33.661Z,12.27
2017-09-26T17:04:01.188Z,15.83
2017-09-26T17:06:28.739Z,15.57
2017-09-26T17:08:56.270Z,17.83
2017-09-26T17:11:23.827Z,19.70
2017-09-26T17:13:51.352Z,15.80
2017-09-26T17:16:18.900Z,15.20
2017-09-26T17:18:46.426Z,23.53
2017-09-26T17:21:14.524Z,16.60
2017-09-26T17:23:42.097Z,13.17
2017-09-26T17:26:09.681Z,13.57
2017-09-26T17:28:37.212Z,13.23
2017-09-26T17:31:04.759Z,18.73
2017-09-26T17:33:32.293Z,14.70
2017-09-26T17:35:59.819Z,14.03
2017-09-26T17:38:27.371Z,13.40
2017-09-26T17:40:55.667Z,17.10
2017-09-26T17:43:23.222Z,16.17
2017-09-26T17:45:50.750Z,13.63
2017-09-26T17:48:18.299Z,11.67
2017-09-26T17:50:45.833Z,13.07
2017-09-26T17:53:14.152Z,12.20
2017-09-26T17:55:41.683Z,11.03
2017-09-26T17:58:09.230Z,11.63
2017-09-26T18:00:37.550Z,13.00
2017-09-26T18:03:05.095Z,11.53
2017-09-26T18:05:32.624Z,12.67
2017-09-26T18:08:00.178Z,11.50
2017-09-26T18:10:27.711Z,12.23
2017-09-26T18:12:55.255Z,10.53
2017-09-26T18:15:23.546Z,10.67
2017-09-26T18:17:51.862Z,10.70
2017-09-26T18:20:19.386Z,11.53
2017-09-26T18:22:46.990Z,11.93
2017-09-26T18:25:14.516Z,14.00
2017-09-26T18:27:42.120Z,19.47
2017-09-26T18:30:09.711Z,12.27
2017-09-26T18:32:37.257Z,12.13
2017-09-26T18:35:05.542Z,10.87
2017-09-26T18:37:33.860Z,10.97
2017-09-26T18:40:01.447Z,14.60
2017-09-26T18:42:29.046Z,13.67
2017-09-26T18:44:56.572Z,13.77
2017-09-26T18:47:24.166Z,10.90
2017-09-26T18:49:51.694Z,10.80
2017-09-26T18:52:19.285Z,11.77
2017-09-26T18:54:46.863Z,12.07
2017-09-26T18:57:15.218Z,10.80
2017-09-26T18:59:42.802Z,18.40
2017-09-26T19:02:10.355Z,12.70
2017-09-26T19:04:37.880Z,10.00
2017-09-26T19:07:06.257Z,9.60
2017-09-26T19:09:34.606Z,9.53
2017-09-26T19:12:02.211Z,10.20
2017-09-26T19:14:30.545Z,7.83
2017-09-26T19:16:58.147Z,9.43
2017-09-26T19:19:26.478Z,9.77
2017-09-26T19:21:54.088Z,12.07
2017-09-26T19:24:22.429Z,11.23
2017-09-26T19:26:50.026Z,11.17
2017-09-26T19:29:18.376Z,12.17
2017-09-26T19:31:45.975Z,16.07
2017-09-26T19:34:14.268Z,11.00
2017-09-26T19:36:41.816Z,11.23
2017-09-26T19:39:10.165Z,10.03
2017-09-26T19:41:37.812Z,10.10
2017-09-26T19:44:05.431Z,11.17
2017-09-26T19:46:33.775Z,10.57
2017-09-26T19:49:02.134Z,11.60
2017-09-26T19:51:29.713Z,12.17
2017-09-26T19:53:58.074Z,9.53
2017-09-26T19:56:25.655Z,10.53
2017-09-26T19:58:53.255Z,10.80
2017-09-26T20:01:20.778Z,12.10
2017-09-26T20:03:48.383Z,15.37
2017-09-26T20:06:15.958Z,12.63
2017-09-26T20:08:43.564Z,12.40
2017-09-26T20:11:11.908Z,9.70
2017-09-26T20:13:39.501Z,12.43
2017-09-26T20:16:07.075Z,8.30
2017-09-26T20:18:35.442Z,10.40
2017-09-26T20:21:03.019Z,10.37
2017-09-26T20:23:30.611Z,8.90
2017-09-26T20:25:58.190Z,10.57
2017-09-26T20:28:25.788Z,9.20
2017-09-26T20:30:53.316Z,11.07
2017-09-26T20:33:20.864Z,11.47
2017-09-26T20:35:48.390Z,9.40
2017-09-26T20:38:15.939Z,10.63
2017-09-26T20:40:43.465Z,15.90
2017-09-26T20:43:11.009Z,13.63
2017-09-26T20:45:38.535Z,12.67
2017-09-26T20:48:06.856Z,13.43
2017-09-26T20:50:34.385Z,10.77
2017-09-26T20:53:01.926Z,11.97
2017-09-26T20:55:30.217Z,13.80
2017-09-26T20:57:57.818Z,13.87
2017-09-26T21:00:25.346Z,13.67
2017-09-26T21:02:52.896Z,17.80
2017-09-26T21:05:21.219Z,19.10
2017-09-26T21:07:48.759Z,18.17
2017-09-26T21:10:17.047Z,21.53
2017-09-26T21:12:45.362Z,16.20
2017-09-26T21:15:12.894Z,18.50
2017-09-26T21:17:41.216Z,17.23
2017-09-26T21:20:08.746Z,15.53
2017-09-26T21:22:36.292Z,12.50
2017-09-26T21:25:03.819Z,12.03
2017-09-26T21:27:31.362Z,13.37
2017-09-26T21:29:58.887Z,10.60
2017-09-26T21:32:26.429Z,11.80
2017-09-26T21:34:53.969Z,10.73
2017-09-26T21:37:21.485Z,11.27
2017-09-26T21:39:49.031Z,16.40
2017-09-26T21:42:16.563Z,15.33
2017-09-26T21:44:44.111Z,13.20
2017-09-26T21:47:11.634Z,15.00
2017-09-26T21:49:39.166Z,8.50
2017-09-26T21:52:07.448Z,7.60
2017-09-26T21:54:35.035Z,10.80
2017-09-26T21:57:02.572Z,7.60
2017-09-26T21:59:30.118Z,8.80
2017-09-26T22:01:57.648Z,7.97
2017-09-26T22:04:25.199Z,7.90
2017-09-26T22:06:53.488Z,8.00
2017-09-26T22:09:21.035Z,9.90
2017-09-26T22:11:48.563Z,12.50
2017-09-26T22:14:16.118Z,7.63
2017-09-26T22:16:43.651Z,11.50
2017-09-26T22:19:11.195Z,13.17
2017-09-26T22:21:39.488Z,12.40
2017-09-26T22:24:07.033Z,8.80
2017-09-26T22:26:34.555Z,9.37
2017-09-26T22:29:02.090Z,9.70
2017-09-26T22:31:29.619Z,10.20
2017-09-26T22:33:59.215Z,10.00
2017-09-26T22:36:26.736Z,9.70
2017-09-26T22:38:54.279Z,11.47
2017-09-26T22:41:21.802Z,11.47
2017-09-26T22:43:49.340Z,9.17
2017-09-26T22:46:17.627Z,9.23
2017-09-26T22:48:45.938Z,8.60
2017-09-26T22:51:13.459Z,9.60
2017-09-26T22:53:41.780Z,11.17
2017-09-26T22:56:09.306Z,10.03
2017-09-26T22:58:37.611Z,9.93
2017-09-26T23:01:05.135Z,10.40
2017-09-26T23:03:32.672Z,9.73
2017-09-26T23:06:00.192Z,10.30
2017-09-26T23:08:27.739Z,10.53
2017-09-26T23:10:56.029Z,8.70
2017-09-26T23:13:23.579Z,7.37
2017-09-26T23:15:51.104Z,7.43
2017-09-26T23:18:18.643Z,7.27
2017-09-26T23:20:46.162Z,9.10
2017-09-26T23:23:13.711Z,7.03
2017-09-26T23:25:42.006Z,9.17
2017-09-26T23:28:09.547Z,9.53
2017-09-26T23:30:37.838Z,12.30
2017-09-26T23:33:05.387Z,12.83
2017-09-26T23:35:33.677Z,10.37
2017-09-26T23:38:01.223Z,7.67
2017-09-26T23:40:29.507Z,7.63
2017-09-26T23:42:57.027Z,7.40
2017-09-26T23:45:24.563Z,6.67
2017-09-26T23:47:52.087Z,8.00
2017-09-26T23:50:19.630Z,7.80
2017-09-26T23:52:47.163Z,19.47
2017-09-26T23:55:14.708Z,15.00
2017-09-26T23:57:42.230Z,12.40
